Orbital elements of FENGYUN 1C DEB
| Launched | 9 May 1999 |
| Flight ended | – |
| Launch site | Taiyuan Space Center, PRC |
| Owner | People's Republic of China |
| NORAD ID | 37077 |
| Date fetched |
Epoch osculation |
Inc. [°] |
Ecc. | RA asc node [hr] |
Arg Peri. [°] |
Mean anom [°] |
Mean motion [rev/day] |
Abs. mag |
| Date fetched |
Epoch osculation |
Inc. [°] |
Ecc. | RA asc node [hr] |
Arg Peri. [°] |
Mean anom [°] |
Mean motion [rev/day] |
Abs. mag |
| 2026 May 05 17:57 | 2026 May 03 16:50:25 | 99.0195 | 0.00943 | 14.1199 | 268.5200 | 90.5187 | 14.41581 | – |
| 2026 May 04 17:57 | 2026 Apr 30 12:12:50 | 99.0196 | 0.00943 | 13.8952 | 278.0751 | 90.5187 | 14.41581 | – |
| 2026 May 03 17:57 | 2026 Apr 30 12:12:50 | 99.0196 | 0.00943 | 13.8952 | 278.0751 | 90.5187 | 14.41581 | – |
| 2026 May 02 17:57 | 2026 Apr 30 12:12:50 | 99.0196 | 0.00943 | 13.8952 | 278.0751 | 90.5187 | 14.41581 | – |
| 2026 May 01 17:56 | 2026 Apr 30 12:12:50 | 99.0196 | 0.00943 | 13.8952 | 278.0751 | 90.5187 | 14.41581 | – |
| 2026 Apr 30 17:56 | 2026 Apr 30 12:12:50 | 99.0196 | 0.00943 | 13.8952 | 278.0751 | 90.5187 | 14.41581 | – |
| 2026 Apr 29 17:57 | 2026 Apr 23 11:58:06 | 99.0193 | 0.00943 | 13.4018 | 299.0546 | 90.5187 | 14.41581 | – |
| 2026 Apr 28 17:56 | 2026 Apr 23 11:58:06 | 99.0193 | 0.00943 | 13.4018 | 299.0546 | 90.5187 | 14.41581 | – |
| 2026 Apr 27 17:58 | 2026 Apr 23 11:58:06 | 99.0193 | 0.00943 | 13.4018 | 299.0546 | 90.5187 | 14.41581 | – |
| 2026 Apr 26 17:58 | 2026 Apr 23 11:58:06 | 99.0193 | 0.00943 | 13.4018 | 299.0546 | 90.5187 | 14.41581 | – |
| 2026 Apr 25 17:58 | 2026 Apr 23 11:58:06 | 99.0193 | 0.00943 | 13.4018 | 299.0546 | 90.5187 | 14.41581 | – |
| 2026 Apr 24 17:59 | 2026 Apr 23 11:58:06 | 99.0193 | 0.00943 | 13.4018 | 299.0546 | 90.5187 | 14.41581 | – |
| 2026 Apr 23 17:57 | 2026 Apr 17 04:22:49 | 99.0193 | 0.00945 | 12.9572 | 317.9279 | 90.5187 | 14.41581 | – |
| 2026 Apr 22 17:57 | 2026 Apr 17 04:22:49 | 99.0193 | 0.00945 | 12.9572 | 317.9279 | 90.5187 | 14.41581 | – |
| 2026 Apr 21 17:57 | 2026 Apr 17 04:22:49 | 99.0193 | 0.00945 | 12.9572 | 317.9279 | 90.5187 | 14.41581 | – |
| 2026 Apr 20 17:57 | 2026 Apr 17 04:22:49 | 99.0193 | 0.00945 | 12.9572 | 317.9279 | 90.5187 | 14.41581 | – |
| 2026 Apr 19 17:58 | 2026 Apr 17 04:22:49 | 99.0193 | 0.00945 | 12.9572 | 317.9279 | 90.5187 | 14.41581 | – |
| 2026 Apr 18 17:56 | 2026 Apr 11 16:46:53 | 99.0195 | 0.00947 | 12.5713 | 334.2692 | 90.5187 | 14.41581 | – |
| 2026 Apr 16 17:57 | 2026 Apr 11 16:46:53 | 99.0195 | 0.00947 | 12.5713 | 334.2692 | 90.5187 | 14.41581 | – |
| 2026 Apr 14 17:57 | 2026 Apr 11 16:46:53 | 99.0195 | 0.00947 | 12.5713 | 334.2692 | 90.5187 | 14.41581 | – |
| 2026 Apr 13 17:57 | 2026 Apr 11 16:46:53 | 99.0195 | 0.00947 | 12.5713 | 334.2692 | 90.5187 | 14.41581 | – |
| 2026 Apr 12 17:57 | 2026 Apr 06 16:50:34 | 99.0198 | 0.00950 | 12.2196 | 349.1889 | 90.5187 | 14.41581 | – |
| 2026 Apr 11 17:57 | 2026 Apr 06 16:50:34 | 99.0198 | 0.00950 | 12.2196 | 349.1889 | 90.5187 | 14.41581 | – |
| 2026 Apr 10 17:58 | 2026 Apr 06 16:50:34 | 99.0198 | 0.00950 | 12.2196 | 349.1889 | 90.5187 | 14.41581 | – |
| 2026 Apr 09 18:01 | 2026 Apr 06 16:50:34 | 99.0198 | 0.00950 | 12.2196 | 349.1889 | 90.5187 | 14.41581 | – |
| 2026 Apr 08 17:57 | 2026 Apr 06 16:50:34 | 99.0198 | 0.00950 | 12.2196 | 349.1889 | 90.5187 | 14.41581 | – |